sensor_id;sensor_type;location;lat;lon;timestamp;temperature;humidity
29731;DHT22;16639;51.488;0.152;2023-01-10T00:00:26;6.70;99.90
29731;DHT22;16639;51.488;0.152;2023-01-10T00:02:55;6.70;99.90
29731;DHT22;16639;51.488;0.152;2023-01-10T00:05:22;6.50;99.90
29731;DHT22;16639;51.488;0.152;2023-01-10T00:07:49;6.60;99.90
29731;DHT22;16639;51.488;0.152;2023-01-10T00:10:16;6.60;99.90
29731;DHT22;16639;51.488;0.152;2023-01-10T00:12:43;6.60;99.90
29731;DHT22;16639;51.488;0.152;2023-01-10T00:15:32;6.50;99.90
29731;DHT22;16639;51.488;0.152;2023-01-10T00:17:59;6.50;99.90
29731;DHT22;16639;51.488;0.152;2023-01-10T00:20:26;6.40;99.90
29731;DHT22;16639;51.488;0.152;2023-01-10T00:22:54;6.40;99.90
29731;DHT22;16639;51.488;0.152;2023-01-10T00:25:21;6.40;99.90
29731;DHT22;16639;51.488;0.152;2023-01-10T00:27:48;6.40;99.90
29731;DHT22;16639;51.488;0.152;2023-01-10T00:30:19;6.40;99.90
29731;DHT22;16639;51.488;0.152;2023-01-10T00:32:46;6.30;99.90
29731;DHT22;16639;51.488;0.152;2023-01-10T00:35:13;6.40;99.90
29731;DHT22;16639;51.488;0.152;2023-01-10T00:37:40;6.30;99.90
29731;DHT22;16639;51.488;0.152;2023-01-10T00:40:09;6.30;99.90
29731;DHT22;16639;51.488;0.152;2023-01-10T00:42:36;6.30;99.90
29731;DHT22;16639;51.488;0.152;2023-01-10T00:45:22;6.30;99.90
29731;DHT22;16639;51.488;0.152;2023-01-10T00:47:51;6.40;99.90
29731;DHT22;16639;51.488;0.152;2023-01-10T00:50:18;6.40;99.90
29731;DHT22;16639;51.488;0.152;2023-01-10T00:52:45;6.40;99.90
29731;DHT22;16639;51.488;0.152;2023-01-10T00:55:12;6.40;99.90
29731;DHT22;16639;51.488;0.152;2023-01-10T00:57:39;6.30;99.90
29731;DHT22;16639;51.488;0.152;2023-01-10T01:00:07;6.30;99.90
29731;DHT22;16639;51.488;0.152;2023-01-10T01:02:35;6.20;99.90
29731;DHT22;16639;51.488;0.152;2023-01-10T01:05:03;6.20;99.90
29731;DHT22;16639;51.488;0.152;2023-01-10T01:07:30;6.30;99.90
29731;DHT22;16639;51.488;0.152;2023-01-10T01:09:57;6.30;99.90
29731;DHT22;16639;51.488;0.152;2023-01-10T01:12:43;6.30;99.90
29731;DHT22;16639;51.488;0.152;2023-01-10T01:15:10;6.30;99.90
29731;DHT22;16639;51.488;0.152;2023-01-10T01:17:38;6.30;99.90
29731;DHT22;16639;51.488;0.152;2023-01-10T01:20:05;6.30;99.90
29731;DHT22;16639;51.488;0.152;2023-01-10T01:22:33;6.30;99.90
29731;DHT22;16639;51.488;0.152;2023-01-10T01:25:00;6.40;99.90
29731;DHT22;16639;51.488;0.152;2023-01-10T01:30:49;6.40;99.90
29731;DHT22;16639;51.488;0.152;2023-01-10T01:33:18;6.40;99.90
29731;DHT22;16639;51.488;0.152;2023-01-10T01:35:46;6.40;99.90
29731;DHT22;16639;51.488;0.152;2023-01-10T01:38:13;6.40;99.90
29731;DHT22;16639;51.488;0.152;2023-01-10T01:40:41;6.40;99.90
29731;DHT22;16639;51.488;0.152;2023-01-10T01:43:21;6.40;99.90
29731;DHT22;16639;51.488;0.152;2023-01-10T01:45:49;6.40;99.90
29731;DHT22;16639;51.488;0.152;2023-01-10T01:51:07;6.50;99.90
29731;DHT22;16639;51.488;0.152;2023-01-10T01:53:47;6.40;99.90
29731;DHT22;16639;51.488;0.152;2023-01-10T01:56:23;6.40;99.90
29731;DHT22;16639;51.488;0.152;2023-01-10T01:58:58;6.40;99.90
29731;DHT22;16639;51.488;0.152;2023-01-10T02:01:26;6.40;99.90
29731;DHT22;16639;51.488;0.152;2023-01-10T02:04:00;6.40;99.90
29731;DHT22;16639;51.488;0.152;2023-01-10T02:06:29;6.30;99.90
29731;DHT22;16639;51.488;0.152;2023-01-10T02:09:04;6.30;99.90
29731;DHT22;16639;51.488;0.152;2023-01-10T02:11:34;6.30;99.90
29731;DHT22;16639;51.488;0.152;2023-01-10T02:14:01;6.30;99.90
29731;DHT22;16639;51.488;0.152;2023-01-10T02:16:31;6.30;99.90
29731;DHT22;16639;51.488;0.152;2023-01-10T02:18:58;6.50;99.90
29731;DHT22;16639;51.488;0.152;2023-01-10T02:41:46;6.30;99.90
29731;DHT22;16639;51.488;0.152;2023-01-10T02:44:20;6.30;99.90
29731;DHT22;16639;51.488;0.152;2023-01-10T02:46:50;6.30;99.90
29731;DHT22;16639;51.488;0.152;2023-01-10T02:49:17;6.30;99.90
29731;DHT22;16639;51.488;0.152;2023-01-10T02:51:45;6.30;99.90
29731;DHT22;16639;51.488;0.152;2023-01-10T02:56:48;6.30;99.90
29731;DHT22;16639;51.488;0.152;2023-01-10T03:08:01;6.20;99.90
29731;DHT22;16639;51.488;0.152;2023-01-10T03:13:22;6.20;99.90
29731;DHT22;16639;51.488;0.152;2023-01-10T03:15:53;6.20;99.90
29731;DHT22;16639;51.488;0.152;2023-01-10T03:18:22;6.10;99.90
29731;DHT22;16639;51.488;0.152;2023-01-10T03:20:50;6.10;99.90
29731;DHT22;16639;51.488;0.152;2023-01-10T03:23:18;3.40;99.90
29731;DHT22;16639;51.488;0.152;2023-01-10T03:25:46;6.10;99.90
29731;DHT22;16639;51.488;0.152;2023-01-10T03:28:22;6.10;99.90
29731;DHT22;16639;51.488;0.152;2023-01-10T03:30:51;6.60;99.90
29731;DHT22;16639;51.488;0.152;2023-01-10T03:33:22;6.00;99.90
29731;DHT22;16639;51.488;0.152;2023-01-10T03:41:02;6.00;99.90
29731;DHT22;16639;51.488;0.152;2023-01-10T03:43:34;6.00;99.90
29731;DHT22;16639;51.488;0.152;2023-01-10T03:46:36;6.00;99.90
29731;DHT22;16639;51.488;0.152;2023-01-10T03:49:05;6.70;99.90
29731;DHT22;16639;51.488;0.152;2023-01-10T03:51:33;6.00;99.90
29731;DHT22;16639;51.488;0.152;2023-01-10T03:54:03;6.00;99.90
29731;DHT22;16639;51.488;0.152;2023-01-10T03:56:31;6.00;99.90
29731;DHT22;16639;51.488;0.152;2023-01-10T03:59:08;6.00;99.90
29731;DHT22;16639;51.488;0.152;2023-01-10T04:01:36;6.00;99.90
29731;DHT22;16639;51.488;0.152;2023-01-10T04:04:03;6.00;99.90
29731;DHT22;16639;51.488;0.152;2023-01-10T04:06:30;6.00;99.90
29731;DHT22;16639;51.488;0.152;2023-01-10T04:08:57;6.00;99.90
29731;DHT22;16639;51.488;0.152;2023-01-10T04:11:24;6.00;99.90
29731;DHT22;16639;51.488;0.152;2023-01-10T04:13:52;6.00;99.90
29731;DHT22;16639;51.488;0.152;2023-01-10T04:16:19;6.10;99.90
29731;DHT22;16639;51.488;0.152;2023-01-10T04:18:46;6.00;99.90
29731;DHT22;16639;51.488;0.152;2023-01-10T04:21:14;6.00;99.90
29731;DHT22;16639;51.488;0.152;2023-01-10T04:23:41;6.10;99.90
29731;DHT22;16639;51.488;0.152;2023-01-10T04:26:08;6.00;99.90
29731;DHT22;16639;51.488;0.152;2023-01-10T04:28:35;6.00;99.90
29731;DHT22;16639;51.488;0.152;2023-01-10T04:31:02;6.00;99.90
29731;DHT22;16639;51.488;0.152;2023-01-10T04:33:29;6.00;99.90
29731;DHT22;16639;51.488;0.152;2023-01-10T04:35:57;6.10;99.90
29731;DHT22;16639;51.488;0.152;2023-01-10T04:38:24;6.00;99.90
29731;DHT22;16639;51.488;0.152;2023-01-10T04:40:54;6.50;99.90
29731;DHT22;16639;51.488;0.152;2023-01-10T04:43:22;6.00;99.90
29731;DHT22;16639;51.488;0.152;2023-01-10T04:45:50;6.00;99.90
29731;DHT22;16639;51.488;0.152;2023-01-10T04:48:17;6.00;99.90
29731;DHT22;16639;51.488;0.152;2023-01-10T04:50:48;6.00;99.90
29731;DHT22;16639;51.488;0.152;2023-01-10T04:53:16;6.00;99.90
29731;DHT22;16639;51.488;0.152;2023-01-10T04:55:43;6.10;99.90
29731;DHT22;16639;51.488;0.152;2023-01-10T04:58:10;6.10;99.90
29731;DHT22;16639;51.488;0.152;2023-01-10T05:00:38;6.10;99.90
29731;DHT22;16639;51.488;0.152;2023-01-10T05:03:05;5.20;99.90
29731;DHT22;16639;51.488;0.152;2023-01-10T05:05:32;6.10;99.90
29731;DHT22;16639;51.488;0.152;2023-01-10T05:08:00;6.00;99.90
29731;DHT22;16639;51.488;0.152;2023-01-10T05:10:27;6.10;99.90
29731;DHT22;16639;51.488;0.152;2023-01-10T05:12:54;6.10;99.90
29731;DHT22;16639;51.488;0.152;2023-01-10T05:15:21;6.10;99.90
29731;DHT22;16639;51.488;0.152;2023-01-10T05:17:49;6.10;99.90
29731;DHT22;16639;51.488;0.152;2023-01-10T05:20:17;6.10;99.90
29731;DHT22;16639;51.488;0.152;2023-01-10T05:22:44;6.10;99.90
29731;DHT22;16639;51.488;0.152;2023-01-10T05:25:11;5.90;99.90
29731;DHT22;16639;51.488;0.152;2023-01-10T05:27:41;6.10;99.90
29731;DHT22;16639;51.488;0.152;2023-01-10T05:30:10;6.00;99.90
29731;DHT22;16639;51.488;0.152;2023-01-10T05:32:38;6.10;99.90
29731;DHT22;16639;51.488;0.152;2023-01-10T05:35:05;6.10;99.90
29731;DHT22;16639;51.488;0.152;2023-01-10T05:37:32;6.10;99.90
29731;DHT22;16639;51.488;0.152;2023-01-10T05:39:59;6.10;99.90
29731;DHT22;16639;51.488;0.152;2023-01-10T05:42:26;6.10;99.90
29731;DHT22;16639;51.488;0.152;2023-01-10T05:44:53;6.10;99.90
29731;DHT22;16639;51.488;0.152;2023-01-10T05:47:21;6.20;99.90
29731;DHT22;16639;51.488;0.152;2023-01-10T05:49:48;6.20;99.90
29731;DHT22;16639;51.488;0.152;2023-01-10T05:52:15;6.30;99.90
29731;DHT22;16639;51.488;0.152;2023-01-10T05:54:42;6.30;99.90
29731;DHT22;16639;51.488;0.152;2023-01-10T05:57:11;6.30;99.90
29731;DHT22;16639;51.488;0.152;2023-01-10T05:59:38;6.40;99.90
29731;DHT22;16639;51.488;0.152;2023-01-10T06:02:05;6.40;99.90
29731;DHT22;16639;51.488;0.152;2023-01-10T06:04:32;6.40;99.90
29731;DHT22;16639;51.488;0.152;2023-01-10T06:06:59;6.50;99.90
29731;DHT22;16639;51.488;0.152;2023-01-10T06:09:27;6.50;99.90
29731;DHT22;16639;51.488;0.152;2023-01-10T06:11:54;6.60;99.90
29731;DHT22;16639;51.488;0.152;2023-01-10T06:14:21;6.60;99.90
29731;DHT22;16639;51.488;0.152;2023-01-10T06:16:48;6.70;99.90
29731;DHT22;16639;51.488;0.152;2023-01-10T06:19:15;6.60;99.90
29731;DHT22;16639;51.488;0.152;2023-01-10T06:21:42;6.70;99.90
29731;DHT22;16639;51.488;0.152;2023-01-10T06:24:10;6.60;99.90
29731;DHT22;16639;51.488;0.152;2023-01-10T06:26:37;6.80;99.90
29731;DHT22;16639;51.488;0.152;2023-01-10T06:29:04;6.80;99.90
29731;DHT22;16639;51.488;0.152;2023-01-10T06:31:32;5.40;99.90
29731;DHT22;16639;51.488;0.152;2023-01-10T06:33:59;6.90;99.90
29731;DHT22;16639;51.488;0.152;2023-01-10T06:36:26;7.00;99.90
29731;DHT22;16639;51.488;0.152;2023-01-10T06:38:53;7.00;99.90
29731;DHT22;16639;51.488;0.152;2023-01-10T06:41:20;7.10;99.90
29731;DHT22;16639;51.488;0.152;2023-01-10T06:43:48;7.20;99.90
29731;DHT22;16639;51.488;0.152;2023-01-10T06:46:16;7.10;99.90
29731;DHT22;16639;51.488;0.152;2023-01-10T06:48:44;7.10;99.90
29731;DHT22;16639;51.488;0.152;2023-01-10T06:51:12;7.10;99.90
29731;DHT22;16639;51.488;0.152;2023-01-10T06:53:40;7.10;99.90
29731;DHT22;16639;51.488;0.152;2023-01-10T06:56:08;7.20;99.90
29731;DHT22;16639;51.488;0.152;2023-01-10T06:58:37;7.30;99.90
29731;DHT22;16639;51.488;0.152;2023-01-10T07:01:16;7.30;99.90
29731;DHT22;16639;51.488;0.152;2023-01-10T07:03:44;7.30;99.90
29731;DHT22;16639;51.488;0.152;2023-01-10T07:06:11;7.40;99.90
29731;DHT22;16639;51.488;0.152;2023-01-10T07:08:39;7.40;99.90
29731;DHT22;16639;51.488;0.152;2023-01-10T07:11:07;7.40;99.90
29731;DHT22;16639;51.488;0.152;2023-01-10T07:13:35;7.90;99.90
29731;DHT22;16639;51.488;0.152;2023-01-10T07:16:09;7.40;99.90
29731;DHT22;16639;51.488;0.152;2023-01-10T07:18:37;7.40;99.90
29731;DHT22;16639;51.488;0.152;2023-01-10T07:21:05;7.40;99.90
29731;DHT22;16639;51.488;0.152;2023-01-10T07:23:32;7.40;99.90
29731;DHT22;16639;51.488;0.152;2023-01-10T07:26:04;6.70;99.90
29731;DHT22;16639;51.488;0.152;2023-01-10T07:28:31;7.50;99.90
29731;DHT22;16639;51.488;0.152;2023-01-10T07:31:00;7.40;99.90
29731;DHT22;16639;51.488;0.152;2023-01-10T07:33:28;7.50;99.90
29731;DHT22;16639;51.488;0.152;2023-01-10T07:35:56;7.50;99.90
29731;DHT22;16639;51.488;0.152;2023-01-10T07:38:23;7.50;99.90
29731;DHT22;16639;51.488;0.152;2023-01-10T07:40:50;7.50;99.90
29731;DHT22;16639;51.488;0.152;2023-01-10T07:43:17;7.50;99.90
29731;DHT22;16639;51.488;0.152;2023-01-10T07:56:36;7.40;99.90
29731;DHT22;16639;51.488;0.152;2023-01-10T07:59:04;7.30;99.90
29731;DHT22;16639;51.488;0.152;2023-01-10T08:01:31;7.40;99.90
29731;DHT22;16639;51.488;0.152;2023-01-10T08:03:59;7.80;99.90
29731;DHT22;16639;51.488;0.152;2023-01-10T08:06:26;7.40;99.90
29731;DHT22;16639;51.488;0.152;2023-01-10T08:08:56;7.40;99.90
29731;DHT22;16639;51.488;0.152;2023-01-10T08:11:23;7.50;99.90
29731;DHT22;16639;51.488;0.152;2023-01-10T08:13:50;7.50;99.90
29731;DHT22;16639;51.488;0.152;2023-01-10T08:16:18;7.50;99.90
29731;DHT22;16639;51.488;0.152;2023-01-10T08:18:46;7.50;99.90
29731;DHT22;16639;51.488;0.152;2023-01-10T08:21:14;7.50;99.90
29731;DHT22;16639;51.488;0.152;2023-01-10T08:23:41;7.50;99.90
29731;DHT22;16639;51.488;0.152;2023-01-10T08:26:08;7.60;99.90
29731;DHT22;16639;51.488;0.152;2023-01-10T08:28:35;7.60;99.90
29731;DHT22;16639;51.488;0.152;2023-01-10T08:31:06;7.60;99.90
29731;DHT22;16639;51.488;0.152;2023-01-10T08:33:35;7.70;99.90
29731;DHT22;16639;51.488;0.152;2023-01-10T08:36:02;7.70;99.90
29731;DHT22;16639;51.488;0.152;2023-01-10T08:38:30;7.70;99.90
29731;DHT22;16639;51.488;0.152;2023-01-10T08:40:57;7.80;99.90
29731;DHT22;16639;51.488;0.152;2023-01-10T08:43:24;7.80;99.90
29731;DHT22;16639;51.488;0.152;2023-01-10T08:45:51;7.80;99.90
29731;DHT22;16639;51.488;0.152;2023-01-10T08:48:19;7.90;99.90
29731;DHT22;16639;51.488;0.152;2023-01-10T08:50:46;7.90;99.90
29731;DHT22;16639;51.488;0.152;2023-01-10T08:53:13;7.90;99.90
29731;DHT22;16639;51.488;0.152;2023-01-10T08:55:41;7.90;99.90
29731;DHT22;16639;51.488;0.152;2023-01-10T08:58:08;7.90;99.90
29731;DHT22;16639;51.488;0.152;2023-01-10T09:00:36;7.90;99.90
29731;DHT22;16639;51.488;0.152;2023-01-10T09:03:04;7.90;99.90
29731;DHT22;16639;51.488;0.152;2023-01-10T09:05:32;7.90;99.90
29731;DHT22;16639;51.488;0.152;2023-01-10T09:07:59;7.90;99.90
29731;DHT22;16639;51.488;0.152;2023-01-10T09:10:28;7.10;99.90
29731;DHT22;16639;51.488;0.152;2023-01-10T09:12:58;7.90;99.90
29731;DHT22;16639;51.488;0.152;2023-01-10T09:15:28;7.90;99.90
29731;DHT22;16639;51.488;0.152;2023-01-10T09:17:56;7.90;99.90
29731;DHT22;16639;51.488;0.152;2023-01-10T09:20:25;7.80;99.90
29731;DHT22;16639;51.488;0.152;2023-01-10T09:22:52;7.80;99.90
29731;DHT22;16639;51.488;0.152;2023-01-10T09:25:20;7.80;99.90
29731;DHT22;16639;51.488;0.152;2023-01-10T09:27:47;7.80;99.90
29731;DHT22;16639;51.488;0.152;2023-01-10T09:30:14;7.80;99.90
29731;DHT22;16639;51.488;0.152;2023-01-10T09:32:41;7.70;99.90
29731;DHT22;16639;51.488;0.152;2023-01-10T09:35:08;8.00;99.90
29731;DHT22;16639;51.488;0.152;2023-01-10T09:37:36;7.80;99.90
29731;DHT22;16639;51.488;0.152;2023-01-10T09:40:04;7.90;99.90
29731;DHT22;16639;51.488;0.152;2023-01-10T09:42:42;7.90;99.90
29731;DHT22;16639;51.488;0.152;2023-01-10T09:45:18;7.90;99.90
29731;DHT22;16639;51.488;0.152;2023-01-10T09:50:20;7.90;99.90
29731;DHT22;16639;51.488;0.152;2023-01-10T09:52:51;7.90;99.90
29731;DHT22;16639;51.488;0.152;2023-01-10T09:55:22;7.90;99.90
29731;DHT22;16639;51.488;0.152;2023-01-10T09:57:51;7.90;99.90
29731;DHT22;16639;51.488;0.152;2023-01-10T10:00:21;7.90;99.90
29731;DHT22;16639;51.488;0.152;2023-01-10T10:02:50;7.90;99.90
29731;DHT22;16639;51.488;0.152;2023-01-10T10:05:22;8.00;99.90
29731;DHT22;16639;51.488;0.152;2023-01-10T10:07:53;8.00;99.90
29731;DHT22;16639;51.488;0.152;2023-01-10T10:18:09;8.00;99.90
29731;DHT22;16639;51.488;0.152;2023-01-10T10:31:03;8.00;99.90
29731;DHT22;16639;51.488;0.152;2023-01-10T10:39:05;8.00;99.90
29731;DHT22;16639;51.488;0.152;2023-01-10T10:41:36;8.10;99.90
29731;DHT22;16639;51.488;0.152;2023-01-10T10:44:48;8.10;99.90
29731;DHT22;16639;51.488;0.152;2023-01-10T10:46:55;8.20;99.90
29731;DHT22;16639;51.488;0.152;2023-01-10T10:49:33;8.10;99.90
29731;DHT22;16639;51.488;0.152;2023-01-10T10:52:01;8.10;99.90
29731;DHT22;16639;51.488;0.152;2023-01-10T10:54:30;8.20;99.90
29731;DHT22;16639;51.488;0.152;2023-01-10T10:56:59;8.20;99.90
29731;DHT22;16639;51.488;0.152;2023-01-10T10:59:26;8.20;99.90
29731;DHT22;16639;51.488;0.152;2023-01-10T11:01:54;8.20;99.90
29731;DHT22;16639;51.488;0.152;2023-01-10T11:04:22;8.20;99.90
29731;DHT22;16639;51.488;0.152;2023-01-10T11:06:49;8.70;99.90
29731;DHT22;16639;51.488;0.152;2023-01-10T11:09:18;8.30;99.90
29731;DHT22;16639;51.488;0.152;2023-01-10T11:12:09;9.00;99.90
29731;DHT22;16639;51.488;0.152;2023-01-10T11:14:43;8.40;99.90
29731;DHT22;16639;51.488;0.152;2023-01-10T11:17:19;8.40;99.90
29731;DHT22;16639;51.488;0.152;2023-01-10T11:20:20;8.50;99.90
29731;DHT22;16639;51.488;0.152;2023-01-10T11:22:47;8.50;99.90
29731;DHT22;16639;51.488;0.152;2023-01-10T11:25:15;8.50;99.90
29731;DHT22;16639;51.488;0.152;2023-01-10T11:27:53;8.60;99.90
29731;DHT22;16639;51.488;0.152;2023-01-10T11:30:21;8.60;99.90
29731;DHT22;16639;51.488;0.152;2023-01-10T11:32:56;8.60;99.90
29731;DHT22;16639;51.488;0.152;2023-01-10T11:35:34;8.60;99.90
29731;DHT22;16639;51.488;0.152;2023-01-10T11:38:04;8.70;99.90
29731;DHT22;16639;51.488;0.152;2023-01-10T11:40:32;8.70;99.90
29731;DHT22;16639;51.488;0.152;2023-01-10T11:42:59;8.70;99.90
29731;DHT22;16639;51.488;0.152;2023-01-10T11:45:27;8.90;99.90
29731;DHT22;16639;51.488;0.152;2023-01-10T11:48:08;8.80;99.90
29731;DHT22;16639;51.488;0.152;2023-01-10T11:50:47;8.80;99.90
29731;DHT22;16639;51.488;0.152;2023-01-10T11:53:29;8.80;99.90
29731;DHT22;16639;51.488;0.152;2023-01-10T11:55:56;8.80;99.90
29731;DHT22;16639;51.488;0.152;2023-01-10T11:58:24;8.90;99.90
29731;DHT22;16639;51.488;0.152;2023-01-10T12:00:56;8.90;99.90
29731;DHT22;16639;51.488;0.152;2023-01-10T12:03:26;8.90;99.90
29731;DHT22;16639;51.488;0.152;2023-01-10T12:05:59;8.90;99.90
29731;DHT22;16639;51.488;0.152;2023-01-10T12:08:28;8.80;99.90
29731;DHT22;16639;51.488;0.152;2023-01-10T12:11:00;9.10;99.90
29731;DHT22;16639;51.488;0.152;2023-01-10T12:13:28;9.20;99.90
29731;DHT22;16639;51.488;0.152;2023-01-10T12:16:15;9.00;99.90
29731;DHT22;16639;51.488;0.152;2023-01-10T12:18:43;9.10;99.90
29731;DHT22;16639;51.488;0.152;2023-01-10T12:21:11;9.10;99.90
29731;DHT22;16639;51.488;0.152;2023-01-10T12:23:39;9.20;99.90
29731;DHT22;16639;51.488;0.152;2023-01-10T12:26:11;9.20;99.90
29731;DHT22;16639;51.488;0.152;2023-01-10T12:28:43;9.30;99.90
29731;DHT22;16639;51.488;0.152;2023-01-10T12:31:12;9.30;99.90
29731;DHT22;16639;51.488;0.152;2023-01-10T12:33:42;9.40;99.90
29731;DHT22;16639;51.488;0.152;2023-01-10T12:44:23;9.50;99.90
29731;DHT22;16639;51.488;0.152;2023-01-10T12:46:55;9.60;99.90
29731;DHT22;16639;51.488;0.152;2023-01-10T12:49:36;9.70;99.90
29731;DHT22;16639;51.488;0.152;2023-01-10T12:52:19;9.70;99.90
29731;DHT22;16639;51.488;0.152;2023-01-10T12:54:49;9.80;99.90
29731;DHT22;16639;51.488;0.152;2023-01-10T12:57:21;9.80;99.90
29731;DHT22;16639;51.488;0.152;2023-01-10T12:59:49;9.90;99.90
29731;DHT22;16639;51.488;0.152;2023-01-10T13:02:20;10.00;99.90
29731;DHT22;16639;51.488;0.152;2023-01-10T13:04:55;10.10;99.90
29731;DHT22;16639;51.488;0.152;2023-01-10T13:07:24;10.10;99.90
29731;DHT22;16639;51.488;0.152;2023-01-10T13:09:54;10.10;99.90
29731;DHT22;16639;51.488;0.152;2023-01-10T13:12:23;10.30;99.90
29731;DHT22;16639;51.488;0.152;2023-01-10T13:22:39;10.60;99.90
29731;DHT22;16639;51.488;0.152;2023-01-10T13:25:17;10.70;99.90
29731;DHT22;16639;51.488;0.152;2023-01-10T13:27:44;11.30;99.90
29731;DHT22;16639;51.488;0.152;2023-01-10T13:30:55;10.80;99.90
29731;DHT22;16639;51.488;0.152;2023-01-10T13:33:04;10.80;99.90
29731;DHT22;16639;51.488;0.152;2023-01-10T13:35:41;10.80;99.90
29731;DHT22;16639;51.488;0.152;2023-01-10T13:38:16;10.90;99.90
29731;DHT22;16639;51.488;0.152;2023-01-10T13:41:04;10.90;99.90
29731;DHT22;16639;51.488;0.152;2023-01-10T13:51:18;11.00;99.90
29731;DHT22;16639;51.488;0.152;2023-01-10T13:53:50;11.10;99.90
29731;DHT22;16639;51.488;0.152;2023-01-10T13:56:29;11.10;99.90
29731;DHT22;16639;51.488;0.152;2023-01-10T13:58:57;11.20;99.90
29731;DHT22;16639;51.488;0.152;2023-01-10T14:01:48;11.20;99.90
29731;DHT22;16639;51.488;0.152;2023-01-10T14:04:36;12.30;99.90
29731;DHT22;16639;51.488;0.152;2023-01-10T14:09:44;11.30;99.90
29731;DHT22;16639;51.488;0.152;2023-01-10T14:12:31;11.30;99.90
29731;DHT22;16639;51.488;0.152;2023-01-10T14:15:19;11.30;99.90
29731;DHT22;16639;51.488;0.152;2023-01-10T14:17:52;11.30;99.90
29731;DHT22;16639;51.488;0.152;2023-01-10T14:20:21;11.30;99.90
29731;DHT22;16639;51.488;0.152;2023-01-10T14:25:36;11.30;99.90
29731;DHT22;16639;51.488;0.152;2023-01-10T14:28:04;11.30;99.90
29731;DHT22;16639;51.488;0.152;2023-01-10T14:30:40;11.30;99.90
29731;DHT22;16639;51.488;0.152;2023-01-10T14:33:18;11.40;99.90
29731;DHT22;16639;51.488;0.152;2023-01-10T14:35:46;12.00;99.90
29731;DHT22;16639;51.488;0.152;2023-01-10T14:38:22;11.30;99.90
29731;DHT22;16639;51.488;0.152;2023-01-10T14:40:51;11.30;99.90
29731;DHT22;16639;51.488;0.152;2023-01-10T14:43:29;11.30;99.90
29731;DHT22;16639;51.488;0.152;2023-01-10T14:46:02;11.30;99.90
29731;DHT22;16639;51.488;0.152;2023-01-10T14:53:39;11.40;99.90
29731;DHT22;16639;51.488;0.152;2023-01-10T14:56:17;11.30;99.90
29731;DHT22;16639;51.488;0.152;2023-01-10T14:58:44;11.40;99.90
29731;DHT22;16639;51.488;0.152;2023-01-10T15:01:13;11.40;99.90
29731;DHT22;16639;51.488;0.152;2023-01-10T15:03:45;11.40;99.90
29731;DHT22;16639;51.488;0.152;2023-01-10T15:06:12;11.40;99.90
29731;DHT22;16639;51.488;0.152;2023-01-10T15:08:39;12.10;99.90
29731;DHT22;16639;51.488;0.152;2023-01-10T15:11:08;11.40;99.90
29731;DHT22;16639;51.488;0.152;2023-01-10T15:13:47;11.40;99.90
29731;DHT22;16639;51.488;0.152;2023-01-10T15:16:20;12.10;99.90
29731;DHT22;16639;51.488;0.152;2023-01-10T15:18:50;11.50;99.90
29731;DHT22;16639;51.488;0.152;2023-01-10T15:21:19;12.40;99.90
29731;DHT22;16639;51.488;0.152;2023-01-10T15:23:48;12.50;99.90
29731;DHT22;16639;51.488;0.152;2023-01-10T15:26:16;11.40;99.90
29731;DHT22;16639;51.488;0.152;2023-01-10T15:28:45;11.40;99.90
29731;DHT22;16639;51.488;0.152;2023-01-10T15:31:15;11.50;99.90
29731;DHT22;16639;51.488;0.152;2023-01-10T15:33:45;11.50;99.90
29731;DHT22;16639;51.488;0.152;2023-01-10T15:36:23;11.40;99.90
29731;DHT22;16639;51.488;0.152;2023-01-10T15:38:52;11.40;99.90
29731;DHT22;16639;51.488;0.152;2023-01-10T15:41:20;11.50;99.90
29731;DHT22;16639;51.488;0.152;2023-01-10T15:43:48;11.40;99.90
29731;DHT22;16639;51.488;0.152;2023-01-10T15:46:17;11.40;99.90
29731;DHT22;16639;51.488;0.152;2023-01-10T15:49:00;11.50;99.90
29731;DHT22;16639;51.488;0.152;2023-01-10T15:51:36;11.50;99.90
29731;DHT22;16639;51.488;0.152;2023-01-10T15:56:33;11.40;99.90
29731;DHT22;16639;51.488;0.152;2023-01-10T15:59:01;11.50;99.90
29731;DHT22;16639;51.488;0.152;2023-01-10T16:01:29;11.50;99.90
29731;DHT22;16639;51.488;0.152;2023-01-10T16:04:01;11.50;99.90
29731;DHT22;16639;51.488;0.152;2023-01-10T16:06:36;11.50;99.90
29731;DHT22;16639;51.488;0.152;2023-01-10T16:09:07;11.50;99.90
29731;DHT22;16639;51.488;0.152;2023-01-10T16:11:45;11.50;99.90
29731;DHT22;16639;51.488;0.152;2023-01-10T16:14:31;11.40;99.90
29731;DHT22;16639;51.488;0.152;2023-01-10T16:17:02;11.40;99.90
29731;DHT22;16639;51.488;0.152;2023-01-10T16:19:29;11.30;99.90
29731;DHT22;16639;51.488;0.152;2023-01-10T16:21:57;11.40;99.90
29731;DHT22;16639;51.488;0.152;2023-01-10T16:24:43;11.40;99.90
29731;DHT22;16639;51.488;0.152;2023-01-10T16:27:11;11.40;99.90
29731;DHT22;16639;51.488;0.152;2023-01-10T16:29:38;11.40;99.90
29731;DHT22;16639;51.488;0.152;2023-01-10T16:32:10;11.30;99.90
29731;DHT22;16639;51.488;0.152;2023-01-10T16:34:38;11.30;99.90
29731;DHT22;16639;51.488;0.152;2023-01-10T16:37:05;11.30;99.90
29731;DHT22;16639;51.488;0.152;2023-01-10T16:39:33;11.30;99.90
29731;DHT22;16639;51.488;0.152;2023-01-10T16:42:00;11.30;99.90
29731;DHT22;16639;51.488;0.152;2023-01-10T16:44:46;11.30;99.90
29731;DHT22;16639;51.488;0.152;2023-01-10T16:47:14;11.30;99.90
29731;DHT22;16639;51.488;0.152;2023-01-10T16:49:41;11.30;99.90
29731;DHT22;16639;51.488;0.152;2023-01-10T16:52:11;11.30;99.90
29731;DHT22;16639;51.488;0.152;2023-01-10T16:54:38;11.30;99.90
29731;DHT22;16639;51.488;0.152;2023-01-10T16:57:05;11.30;99.90
29731;DHT22;16639;51.488;0.152;2023-01-10T16:59:32;11.30;99.90
29731;DHT22;16639;51.488;0.152;2023-01-10T17:02:18;11.30;99.90
29731;DHT22;16639;51.488;0.152;2023-01-10T17:04:47;11.30;99.90
29731;DHT22;16639;51.488;0.152;2023-01-10T17:07:14;11.40;99.90
29731;DHT22;16639;51.488;0.152;2023-01-10T17:09:42;11.70;99.90
29731;DHT22;16639;51.488;0.152;2023-01-10T17:12:12;11.30;99.90
29731;DHT22;16639;51.488;0.152;2023-01-10T17:14:41;11.30;99.90
29731;DHT22;16639;51.488;0.152;2023-01-10T17:17:08;11.30;99.90
29731;DHT22;16639;51.488;0.152;2023-01-10T17:19:36;11.40;99.90
29731;DHT22;16639;51.488;0.152;2023-01-10T17:22:04;11.30;99.90
29731;DHT22;16639;51.488;0.152;2023-01-10T17:24:31;11.40;99.90
29731;DHT22;16639;51.488;0.152;2023-01-10T17:26:58;11.40;99.90
29731;DHT22;16639;51.488;0.152;2023-01-10T17:29:25;11.40;99.90
29731;DHT22;16639;51.488;0.152;2023-01-10T17:31:53;11.40;99.90
29731;DHT22;16639;51.488;0.152;2023-01-10T17:34:20;11.80;99.90
29731;DHT22;16639;51.488;0.152;2023-01-10T17:36:47;11.40;99.90
29731;DHT22;16639;51.488;0.152;2023-01-10T17:39:14;11.40;99.90
29731;DHT22;16639;51.488;0.152;2023-01-10T17:41:41;11.50;99.90
29731;DHT22;16639;51.488;0.152;2023-01-10T17:44:09;11.50;99.90
29731;DHT22;16639;51.488;0.152;2023-01-10T17:46:36;11.50;99.90
29731;DHT22;16639;51.488;0.152;2023-01-10T17:49:03;11.50;99.90
29731;DHT22;16639;51.488;0.152;2023-01-10T17:51:30;11.50;99.90
29731;DHT22;16639;51.488;0.152;2023-01-10T17:53:58;11.50;99.90
29731;DHT22;16639;51.488;0.152;2023-01-10T17:56:25;11.50;99.90
29731;DHT22;16639;51.488;0.152;2023-01-10T17:58:52;11.60;99.90